Wetterdaten: Woche 24.03.14 - 30.03.14 (KW13)
Datum Zeit Temperatur Luftfeuchte Luftdruck Niederschlag Windrichtung Sonnenschein Solar Wind
24.03.2014 00:00 1,1 C 97 % 1008,6 hPa 0,0 l/m N 0,00 h 0 W/m 0,8 km/h (0 Bft)
24.03.2014 01:00 0,9 C 97 % 1008,9 hPa 0,0 l/m N 0,00 h 0 W/m 1,5 km/h (1 Bft)
24.03.2014 02:00 0,7 C 97 % 1009,1 hPa 0,0 l/m W 0,00 h 0 W/m 1,1 km/h (0 Bft)
24.03.2014 03:00 0,7 C 97 % 1009,3 hPa 0,0 l/m N 0,00 h 0 W/m 2,4 km/h (1 Bft)
24.03.2014 04:00 0,2 C 97 % 1009,8 hPa 0,0 l/m W 0,00 h 0 W/m 1,2 km/h (1 Bft)
24.03.2014 05:00 -0,1 C 97 % 1010,3 hPa 0,0 l/m N 0,00 h 0 W/m 0,9 km/h (0 Bft)
24.03.2014 06:00 -0,2 C 97 % 1011,0 hPa 0,0 l/m N 0,00 h 9 W/m 0,0 km/h (0 Bft)
24.03.2014 07:00 0,1 C 98 % 1011,5 hPa 0,2 l/m N 0,00 h 25 W/m 0,0 km/h (0 Bft)
24.03.2014 08:00 1,4 C 98 % 1011,8 hPa 0,0 l/m N 0,08 h 104 W/m 0,0 km/h (0 Bft)
24.03.2014 09:00 3,0 C 92 % 1012,1 hPa 0,2 l/m N 0,08 h 142 W/m 1,5 km/h (1 Bft)
24.03.2014 10:00 3,4 C 85 % 1012,1 hPa 0,0 l/m W 0,08 h 221 W/m 4,9 km/h (1 Bft)
24.03.2014 11:00 4,1 C 81 % 1012,0 hPa 0,0 l/m W 0,17 h 180 W/m 6,1 km/h (2 Bft)
24.03.2014 12:00 4,6 C 87 % 1011,7 hPa 0,0 l/m SW 0,92 h 700 W/m 11,4 km/h (2 Bft)
24.03.2014 13:00 5,4 C 81 % 1011,5 hPa 0,0 l/m NO 0,50 h 467 W/m 16,8 km/h (3 Bft)
24.03.2014 14:00 3,8 C 87 % 1011,5 hPa 0,0 l/m N-NO 0,17 h 183 W/m 9,7 km/h (2 Bft)
24.03.2014 15:00 3,1 C 91 % 1011,5 hPa 0,4 l/m O 0,08 h 137 W/m 8,4 km/h (2 Bft)
24.03.2014 16:00 2,8 C 93 % 1011,5 hPa 0,0 l/m S-SW 0,00 h 88 W/m 10,6 km/h (2 Bft)
24.03.2014 17:00 2,8 C 93 % 1011,7 hPa 0,0 l/m SW 0,17 h 59 W/m 8,6 km/h (2 Bft)
24.03.2014 18:00 1,7 C 94 % 1012,1 hPa 0,0 l/m S-SW 0,00 h 9 W/m 7,2 km/h (2 Bft)
24.03.2014 19:00 1,3 C 96 % 1012,3 hPa 0,0 l/m S-SW 0,00 h 0 W/m 7,9 km/h (2 Bft)
24.03.2014 20:00 1,3 C 96 % 1012,5 hPa 0,0 l/m S-SW 0,00 h 0 W/m 4,3 km/h (1 Bft)
24.03.2014 21:00 1,1 C 96 % 1012,6 hPa 0,0 l/m S-SW 0,00 h 0 W/m 3,1 km/h (1 Bft)
24.03.2014 22:00 1,1 C 96 % 1012,5 hPa 0,0 l/m N 0,00 h 0 W/m 0,1 km/h (0 Bft)
24.03.2014 23:00 1,0 C 96 % 1012,4 hPa 0,0 l/m N 0,00 h 0 W/m 0,0 km/h (0 Bft)
25.03.2014 00:00 0,7 C 96 % 1012,2 hPa 0,0 l/m S-SW 0,00 h 0 W/m 0,8 km/h (0 Bft)
25.03.2014 01:00 0,7 C 97 % 1012,1 hPa 0,0 l/m S-SW 0,00 h 0 W/m 4,3 km/h (1 Bft)
25.03.2014 02:00 0,8 C 98 % 1011,6 hPa 0,0 l/m S-SW 0,00 h 0 W/m 3,1 km/h (1 Bft)
25.03.2014 03:00 0,8 C 98 % 1011,2 hPa 0,0 l/m N 0,00 h 0 W/m 1,6 km/h (1 Bft)
25.03.2014 04:00 0,9 C 98 % 1011,0 hPa 0,0 l/m S-SW 0,00 h 0 W/m 1,9 km/h (1 Bft)
25.03.2014 05:00 0,7 C 98 % 1010,8 hPa 0,0 l/m SW 0,00 h 0 W/m 5,3 km/h (1 Bft)
25.03.2014 06:00 0,7 C 97 % 1010,6 hPa 0,0 l/m N 0,00 h 8 W/m 1,3 km/h (1 Bft)
25.03.2014 07:00 0,7 C 96 % 1010,4 hPa 0,0 l/m N 0,00 h 33 W/m 1,7 km/h (1 Bft)
25.03.2014 08:00 1,3 C 94 % 1009,8 hPa 0,0 l/m N 0,00 h 80 W/m 3,6 km/h (1 Bft)
25.03.2014 09:00 2,0 C 89 % 1009,5 hPa 0,0 l/m N 0,00 h 122 W/m 3,1 km/h (1 Bft)
25.03.2014 10:00 2,8 C 85 % 1009,3 hPa 0,0 l/m W-SW 0,08 h 208 W/m 3,7 km/h (1 Bft)
25.03.2014 11:00 3,8 C 78 % 1008,8 hPa 0,0 l/m W 0,17 h 239 W/m 4,8 km/h (1 Bft)
25.03.2014 12:00 5,6 C 70 % 1008,3 hPa 0,0 l/m SW 0,83 h 731 W/m 8,6 km/h (2 Bft)
25.03.2014 13:00 5,9 C 65 % 1007,6 hPa 0,0 l/m O-NO 0,08 h 245 W/m 6,4 km/h (2 Bft)
25.03.2014 14:00 6,1 C 62 % 1007,0 hPa 0,0 l/m S-SW 0,08 h 216 W/m 4,0 km/h (1 Bft)
25.03.2014 15:00 6,0 C 62 % 1006,8 hPa 0,0 l/m S 0,00 h 86 W/m 5,9 km/h (2 Bft)
25.03.2014 16:00 5,5 C 65 % 1006,7 hPa 0,0 l/m S-SW 0,25 h 149 W/m 6,3 km/h (2 Bft)
25.03.2014 17:00 5,3 C 66 % 1006,9 hPa 0,0 l/m O 0,50 h 113 W/m 8,4 km/h (2 Bft)
25.03.2014 18:00 3,5 C 76 % 1007,1 hPa 0,0 l/m O 0,00 h 11 W/m 3,2 km/h (1 Bft)
25.03.2014 19:00 2,3 C 82 % 1007,4 hPa 0,0 l/m NO 0,00 h 0 W/m 7,8 km/h (2 Bft)
25.03.2014 20:00 1,2 C 87 % 1007,8 hPa 0,0 l/m NO 0,00 h 0 W/m 2,7 km/h (1 Bft)
25.03.2014 21:00 0,4 C 91 % 1008,1 hPa 0,0 l/m N 0,00 h 0 W/m 2,4 km/h (1 Bft)
25.03.2014 22:00 -0,1 C 93 % 1008,1 hPa 0,0 l/m N 0,00 h 0 W/m 3,2 km/h (1 Bft)
25.03.2014 23:00 -0,5 C 95 % 1007,9 hPa 0,0 l/m NO 0,00 h 0 W/m 6,1 km/h (2 Bft)
26.03.2014 00:00 -0,9 C 95 % 1008,0 hPa 0,0 l/m N-NO 0,00 h 0 W/m 3,7 km/h (1 Bft)
26.03.2014 01:00 -0,9 C 96 % 1007,9 hPa 0,0 l/m N-NO 0,00 h 0 W/m 6,1 km/h (2 Bft)
26.03.2014 02:00 -0,8 C 96 % 1007,8 hPa 0,0 l/m NO 0,00 h 0 W/m 7,6 km/h (2 Bft)
26.03.2014 03:00 -0,7 C 97 % 1007,8 hPa 0,0 l/m NO 0,00 h 0 W/m 9,7 km/h (2 Bft)
26.03.2014 04:00 -0,6 C 97 % 1008,0 hPa 0,0 l/m NO 0,00 h 0 W/m 11,8 km/h (2 Bft)
26.03.2014 05:00 -0,7 C 97 % 1008,4 hPa 0,0 l/m NO 0,00 h 0 W/m 11,8 km/h (2 Bft)
26.03.2014 06:00 -0,5 C 97 % 1008,9 hPa 0,0 l/m NO 0,00 h 11 W/m 11,2 km/h (2 Bft)
26.03.2014 07:00 -0,1 C 96 % 1009,2 hPa 0,0 l/m O-NO 0,00 h 34 W/m 11,4 km/h (2 Bft)
26.03.2014 08:00 0,4 C 95 % 1009,6 hPa 0,0 l/m O-NO 0,00 h 66 W/m 13,8 km/h (3 Bft)
26.03.2014 09:00 0,9 C 93 % 1010,2 hPa 0,0 l/m O-NO 0,00 h 86 W/m 13,4 km/h (3 Bft)
26.03.2014 10:00 1,5 C 90 % 1010,4 hPa 0,0 l/m O-NO 0,00 h 103 W/m 13,7 km/h (3 Bft)
26.03.2014 11:00 2,4 C 87 % 1010,5 hPa 0,0 l/m O-NO 0,00 h 151 W/m 13,3 km/h (3 Bft)
26.03.2014 12:00 3,5 C 82 % 1010,4 hPa 0,0 l/m O 0,08 h 227 W/m 14,8 km/h (3 Bft)
26.03.2014 13:00 4,4 C 78 % 1010,5 hPa 0,0 l/m O 0,17 h 286 W/m 10,3 km/h (2 Bft)
26.03.2014 14:00 5,6 C 73 % 1010,1 hPa 0,0 l/m O-NO 0,58 h 479 W/m 12,2 km/h (2 Bft)
26.03.2014 15:00 7,0 C 68 % 1009,7 hPa 0,0 l/m O-SO 0,92 h 445 W/m 15,6 km/h (3 Bft)
26.03.2014 16:00 7,5 C 67 % 1009,5 hPa 0,0 l/m O-NO 1,00 h 343 W/m 14,2 km/h (3 Bft)
26.03.2014 17:00 7,4 C 67 % 1009,8 hPa 0,0 l/m O 0,92 h 177 W/m 11,6 km/h (2 Bft)
26.03.2014 18:00 5,9 C 73 % 1010,1 hPa 0,0 l/m O 0,00 h 18 W/m 3,6 km/h (1 Bft)
26.03.2014 19:00 3,8 C 82 % 1010,3 hPa 0,0 l/m O 0,00 h 0 W/m 2,9 km/h (1 Bft)
26.03.2014 20:00 3,0 C 85 % 1010,4 hPa 0,0 l/m O 0,00 h 0 W/m 4,1 km/h (1 Bft)
26.03.2014 21:00 2,4 C 88 % 1010,3 hPa 0,0 l/m O 0,00 h 0 W/m 3,2 km/h (1 Bft)
26.03.2014 22:00 1,9 C 88 % 1010,2 hPa 0,0 l/m N 0,00 h 0 W/m 2,7 km/h (1 Bft)
26.03.2014 23:00 1,1 C 90 % 1010,1 hPa 0,0 l/m O 0,00 h 0 W/m 0,9 km/h (0 Bft)
27.03.2014 00:00 0,6 C 92 % 1009,9 hPa 0,0 l/m N 0,00 h 0 W/m 1,1 km/h (0 Bft)
27.03.2014 01:00 -0,3 C 94 % 1009,9 hPa 0,0 l/m N 0,00 h 0 W/m 0,9 km/h (0 Bft)
27.03.2014 02:00 -0,4 C 95 % 1009,6 hPa 0,0 l/m O 0,00 h 0 W/m 4,4 km/h (1 Bft)
27.03.2014 03:00 -0,4 C 94 % 1009,4 hPa 0,0 l/m O 0,00 h 0 W/m 3,1 km/h (1 Bft)
27.03.2014 04:00 -1,0 C 95 % 1009,7 hPa 0,0 l/m N 0,00 h 0 W/m 1,6 km/h (1 Bft)
27.03.2014 05:00 -1,2 C 95 % 1009,7 hPa 0,0 l/m N 0,00 h 0 W/m 2,3 km/h (1 Bft)
27.03.2014 06:00 -1,2 C 96 % 1010,1 hPa 0,0 l/m N 0,00 h 18 W/m 2,1 km/h (1 Bft)
27.03.2014 07:00 -0,2 C 96 % 1010,2 hPa 0,0 l/m O 0,33 h 115 W/m 2,3 km/h (1 Bft)
27.03.2014 08:00 1,6 C 92 % 1010,3 hPa 0,0 l/m O 1,00 h 285 W/m 2,5 km/h (1 Bft)
27.03.2014 09:00 3,5 C 88 % 1010,1 hPa 0,0 l/m O 1,00 h 455 W/m 6,4 km/h (2 Bft)
27.03.2014 10:00 5,8 C 79 % 1009,9 hPa 0,0 l/m O-SO 1,00 h 591 W/m 4,8 km/h (1 Bft)
27.03.2014 11:00 8,0 C 72 % 1009,6 hPa 0,0 l/m W-SW 1,00 h 635 W/m 6,7 km/h (2 Bft)
27.03.2014 12:00 9,4 C 62 % 1009,3 hPa 0,0 l/m NO 0,33 h 404 W/m 6,5 km/h (2 Bft)
27.03.2014 13:00 11,1 C 56 % 1008,7 hPa 0,0 l/m NO 0,92 h 673 W/m 14,4 km/h (3 Bft)
27.03.2014 14:00 12,1 C 53 % 1008,1 hPa 0,0 l/m O-NO 1,00 h 623 W/m 16,5 km/h (3 Bft)
27.03.2014 15:00 12,9 C 45 % 1007,6 hPa 0,0 l/m O 1,00 h 515 W/m 16,1 km/h (3 Bft)
27.03.2014 16:00 13,0 C 40 % 1007,3 hPa 0,0 l/m O 1,00 h 323 W/m 14,5 km/h (3 Bft)
27.03.2014 17:00 12,7 C 41 % 1007,9 hPa 0,0 l/m O 1,00 h 185 W/m 14,4 km/h (3 Bft)
27.03.2014 18:00 11,2 C 46 % 1008,3 hPa 0,0 l/m O 0,08 h 25 W/m 7,0 km/h (2 Bft)
27.03.2014 19:00 8,4 C 58 % 1008,6 hPa 0,0 l/m N 0,00 h 0 W/m 3,3 km/h (1 Bft)
27.03.2014 20:00 7,1 C 63 % 1009,0 hPa 0,0 l/m N 0,00 h 0 W/m 2,7 km/h (1 Bft)
27.03.2014 21:00 6,5 C 67 % 1009,3 hPa 0,0 l/m O 0,00 h 0 W/m 4,9 km/h (1 Bft)
27.03.2014 22:00 5,7 C 72 % 1009,5 hPa 0,0 l/m O 0,00 h 0 W/m 5,1 km/h (1 Bft)
27.03.2014 23:00 5,1 C 75 % 1009,6 hPa 0,0 l/m O 0,00 h 0 W/m 4,4 km/h (1 Bft)
28.03.2014 00:00 4,9 C 76 % 1009,9 hPa 0,0 l/m O 0,00 h 0 W/m 4,0 km/h (1 Bft)
28.03.2014 01:00 4,0 C 80 % 1010,4 hPa 0,0 l/m N 0,00 h 0 W/m 2,7 km/h (1 Bft)
28.03.2014 02:00 3,0 C 84 % 1010,9 hPa 0,0 l/m N 0,00 h 0 W/m 2,3 km/h (1 Bft)
28.03.2014 03:00 2,5 C 86 % 1011,1 hPa 0,0 l/m N 0,00 h 0 W/m 2,7 km/h (1 Bft)
28.03.2014 04:00 1,7 C 89 % 1011,8 hPa 0,0 l/m N 0,00 h 0 W/m 1,7 km/h (1 Bft)
28.03.2014 05:00 1,0 C 92 % 1012,2 hPa 0,0 l/m N 0,00 h 0 W/m 1,9 km/h (1 Bft)
28.03.2014 06:00 0,7 C 93 % 1012,8 hPa 0,0 l/m N 0,08 h 19 W/m 0,3 km/h (0 Bft)
28.03.2014 07:00 2,2 C 92 % 1013,2 hPa 0,0 l/m N 0,42 h 120 W/m 1,5 km/h (1 Bft)
28.03.2014 08:00 4,4 C 85 % 1013,6 hPa 0,0 l/m O 1,00 h 287 W/m 3,7 km/h (1 Bft)
28.03.2014 09:00 6,5 C 78 % 1014,1 hPa 0,0 l/m O 1,00 h 453 W/m 4,5 km/h (1 Bft)
28.03.2014 10:00 8,5 C 73 % 1014,3 hPa 0,0 l/m O-NO 1,00 h 584 W/m 6,4 km/h (2 Bft)
28.03.2014 11:00 10,5 C 67 % 1014,3 hPa 0,0 l/m O-NO 1,00 h 673 W/m 6,7 km/h (2 Bft)
28.03.2014 12:00 12,1 C 62 % 1014,2 hPa 0,0 l/m O 1,00 h 711 W/m 7,8 km/h (2 Bft)
28.03.2014 13:00 13,7 C 54 % 1014,0 hPa 0,0 l/m SO 1,00 h 694 W/m 9,0 km/h (2 Bft)
28.03.2014 14:00 14,8 C 46 % 1014,0 hPa 0,0 l/m W-SW 1,00 h 649 W/m 7,4 km/h (2 Bft)
28.03.2014 15:00 15,1 C 44 % 1013,8 hPa 0,0 l/m O-NO 1,00 h 543 W/m 10,7 km/h (2 Bft)
28.03.2014 16:00 14,9 C 47 % 1013,8 hPa 0,0 l/m O 1,00 h 345 W/m 11,4 km/h (2 Bft)
28.03.2014 17:00 14,3 C 48 % 1014,0 hPa 0,0 l/m O 0,92 h 152 W/m 9,8 km/h (2 Bft)
28.03.2014 18:00 12,7 C 54 % 1014,6 hPa 0,0 l/m O 0,00 h 17 W/m 5,5 km/h (1 Bft)
28.03.2014 19:00 9,5 C 66 % 1015,3 hPa 0,0 l/m N 0,00 h 0 W/m 0,9 km/h (0 Bft)
28.03.2014 20:00 7,7 C 73 % 1015,8 hPa 0,0 l/m N 0,00 h 0 W/m 1,7 km/h (1 Bft)
28.03.2014 21:00 6,7 C 75 % 1016,4 hPa 0,0 l/m N 0,00 h 0 W/m 2,0 km/h (1 Bft)
28.03.2014 22:00 6,0 C 77 % 1016,7 hPa 0,0 l/m N 0,00 h 0 W/m 1,6 km/h (1 Bft)
28.03.2014 23:00 5,5 C 79 % 1017,2 hPa 0,0 l/m O 0,00 h 0 W/m 3,3 km/h (1 Bft)
29.03.2014 00:00 4,6 C 82 % 1017,6 hPa 0,0 l/m O 0,00 h 0 W/m 3,1 km/h (1 Bft)
29.03.2014 01:00 4,1 C 85 % 1017,7 hPa 0,0 l/m O-NO 0,00 h 0 W/m 6,1 km/h (2 Bft)
29.03.2014 02:00 3,8 C 86 % 1017,7 hPa 0,0 l/m N-NO 0,00 h 0 W/m 6,9 km/h (2 Bft)
29.03.2014 03:00 3,0 C 89 % 1017,8 hPa 0,0 l/m N-NO 0,00 h 0 W/m 3,9 km/h (1 Bft)
29.03.2014 04:00 2,4 C 92 % 1017,9 hPa 0,0 l/m N-NO 0,00 h 0 W/m 3,3 km/h (1 Bft)
29.03.2014 05:00 1,9 C 94 % 1018,0 hPa 0,0 l/m N-NO 0,00 h 0 W/m 3,5 km/h (1 Bft)
29.03.2014 06:00 1,8 C 95 % 1018,5 hPa 0,0 l/m N 0,00 h 20 W/m 3,5 km/h (1 Bft)
29.03.2014 07:00 3,0 C 95 % 1018,9 hPa 0,0 l/m N-NO 0,42 h 131 W/m 7,0 km/h (2 Bft)
29.03.2014 08:00 5,3 C 88 % 1018,8 hPa 0,0 l/m N 1,00 h 313 W/m 6,7 km/h (2 Bft)
29.03.2014 09:00 8,0 C 77 % 1018,7 hPa 0,0 l/m O-NO 1,00 h 483 W/m 8,2 km/h (2 Bft)
29.03.2014 10:00 10,4 C 68 % 1018,5 hPa 0,0 l/m O-NO 1,00 h 621 W/m 7,1 km/h (2 Bft)
29.03.2014 11:00 13,0 C 57 % 1018,1 hPa 0,0 l/m O-NO 1,00 h 713 W/m 11,6 km/h (2 Bft)
29.03.2014 12:00 15,2 C 46 % 1017,7 hPa 0,0 l/m O-NO 1,00 h 746 W/m 13,4 km/h (3 Bft)
29.03.2014 13:00 16,8 C 41 % 1017,1 hPa 0,0 l/m O-NO 1,00 h 701 W/m 13,2 km/h (3 Bft)
29.03.2014 14:00 17,3 C 37 % 1016,4 hPa 0,0 l/m O-NO 1,00 h 609 W/m 15,3 km/h (3 Bft)
29.03.2014 15:00 17,3 C 38 % 1015,9 hPa 0,0 l/m O-NO 0,92 h 350 W/m 11,5 km/h (2 Bft)
29.03.2014 16:00 17,2 C 38 % 1015,6 hPa 0,0 l/m O-NO 0,92 h 270 W/m 14,1 km/h (3 Bft)
29.03.2014 17:00 16,5 C 41 % 1015,6 hPa 0,0 l/m O-NO 0,67 h 142 W/m 12,5 km/h (3 Bft)
29.03.2014 18:00 14,7 C 48 % 1015,7 hPa 0,0 l/m O 0,08 h 19 W/m 6,6 km/h (2 Bft)
29.03.2014 19:00 11,8 C 58 % 1015,8 hPa 0,0 l/m N 0,00 h 0 W/m 1,9 km/h (1 Bft)
29.03.2014 20:00 10,1 C 64 % 1016,0 hPa 0,0 l/m N 0,00 h 0 W/m 1,7 km/h (1 Bft)
29.03.2014 21:00 8,9 C 67 % 1016,1 hPa 0,0 l/m N 0,00 h 0 W/m 2,9 km/h (1 Bft)
29.03.2014 22:00 8,0 C 71 % 1016,2 hPa 0,0 l/m N 0,00 h 0 W/m 1,9 km/h (1 Bft)
29.03.2014 23:00 7,0 C 75 % 1016,0 hPa 0,0 l/m N 0,00 h 0 W/m 2,0 km/h (1 Bft)
30.03.2014 00:00 6,0 C 79 % 1015,6 hPa 0,0 l/m N 0,00 h 0 W/m 1,3 km/h (1 Bft)
30.03.2014 01:00 5,0 C 83 % 1015,3 hPa 0,0 l/m N 0,00 h 0 W/m 0,4 km/h (0 Bft)
30.03.2014 03:00 4,0 C 86 % 1015,2 hPa 0,0 l/m N 0,00 h 0 W/m 0,9 km/h (0 Bft)
30.03.2014 04:00 3,1 C 88 % 1015,3 hPa 0,0 l/m N 0,00 h 0 W/m 0,0 km/h (0 Bft)
30.03.2014 05:00 2,1 C 90 % 1015,3 hPa 0,0 l/m N 0,00 h 0 W/m 0,0 km/h (0 Bft)
30.03.2014 06:00 1,3 C 91 % 1015,5 hPa 0,0 l/m N 0,00 h 0 W/m 0,0 km/h (0 Bft)
30.03.2014 07:00 1,1 C 93 % 1015,8 hPa 0,0 l/m N 0,08 h 22 W/m 0,0 km/h (0 Bft)
30.03.2014 08:00 2,1 C 91 % 1016,2 hPa 0,0 l/m N 0,33 h 127 W/m 0,1 km/h (0 Bft)
30.03.2014 09:00 5,7 C 84 % 1016,1 hPa 0,0 l/m N 1,00 h 290 W/m 0,9 km/h (0 Bft)
30.03.2014 10:00 9,6 C 72 % 1015,8 hPa 0,0 l/m O 1,00 h 434 W/m 2,7 km/h (1 Bft)
30.03.2014 11:00 13,4 C 59 % 1015,4 hPa 0,0 l/m O 1,00 h 597 W/m 6,8 km/h (2 Bft)
30.03.2014 12:00 15,8 C 46 % 1014,8 hPa 0,0 l/m SO 1,00 h 683 W/m 5,3 km/h (1 Bft)
30.03.2014 13:00 17,7 C 40 % 1014,3 hPa 0,0 l/m SO 1,00 h 713 W/m 5,6 km/h (1 Bft)
30.03.2014 14:00 18,9 C 36 % 1013,8 hPa 0,0 l/m SW 1,00 h 696 W/m 6,5 km/h (2 Bft)
30.03.2014 15:00 19,7 C 34 % 1013,3 hPa 0,0 l/m N-NO 1,00 h 623 W/m 9,0 km/h (2 Bft)
30.03.2014 16:00 20,0 C 31 % 1013,0 hPa 0,0 l/m NO 1,00 h 503 W/m 7,5 km/h (2 Bft)
30.03.2014 17:00 19,9 C 26 % 1012,6 hPa 0,0 l/m O 1,00 h 333 W/m 8,7 km/h (2 Bft)
30.03.2014 18:00 19,2 C 31 % 1012,7 hPa 0,0 l/m O 0,83 h 142 W/m 7,2 km/h (2 Bft)
30.03.2014 19:00 16,5 C 43 % 1012,8 hPa 0,0 l/m N 0,00 h 22 W/m 1,7 km/h (1 Bft)
30.03.2014 20:00 12,8 C 52 % 1013,1 hPa 0,0 l/m N 0,00 h 0 W/m 0,8 km/h (0 Bft)
30.03.2014 21:00 10,7 C 57 % 1013,5 hPa 0,0 l/m N 0,00 h 0 W/m 0,8 km/h (0 Bft)
30.03.2014 22:00 9,2 C 61 % 1013,4 hPa 0,0 l/m N 0,00 h 0 W/m 0,8 km/h (0 Bft)
30.03.2014 23:00 8,0 C 67 % 1013,5 hPa 0,0 l/m N 0,00 h 0 W/m 0,3 km/h (0 Bft)
Min-Datum _ 27.03.14 30.03.14 25.03.14 - - - - 24.03.14
_ Min-Zeit 05:50 17:10 16:50 - - - - 00:00
Minimum _ -1,3 C 24 % 1006,6 hPa - - - - 0,0 km/h (0 Bft)
Max-Datum _ 30.03.14 25.03.14 29.03.14 24.03.14 - 24.03.14 25.03.14 24.03.14
_ Max-Zeit 16:25 23:30 07:40 15:00 - 08:55 12:50 13:10
Maximum _ 20,2 C 100 % 1019,1 hPa 0,4 l/m - 0,08 h 916 W/m 22,5 km/h
O-NO (4 Bft)
Durchschnitt _ 5,6 C 77 % 1012,0 hPa #0,8 l/m O #48:15 h 301 W/m 5,5 km/h (1 Bft)